Date,TemperatureHighF,TemperatureAvgF,TemperatureLowF,DewpointHighF,DewpointAvgF,DewpointLowF,HumidityHigh,HumidityAvg,HumidityLow,PressureMaxIn,PressureMinIn,WindSpeedMaxMPH,WindSpeedAvgMPH,GustSpeedMaxMPH,PrecipitationSumIn
2013-1-2,-200.0,0.0,200.0,-99.9,-99.9,-99.9,0,0,100,0.00,40.00,0,-999,16,0.00
2013-3-4,28.5,26.3,25.4,21.2,20.6,19.9,82,79,74,29.88,29.85,30,10,30,0.00
2013-3-5,39.7,32.7,26.1,28.1,25.6,22.1,87,75,61,30.15,30.10,7,3,24,0.00
2013-3-6,38.5,32.7,25.1,31.7,26.6,22.6,93,79,67,30.19,30.09,13,5,24,0.00
2013-3-7,35.4,32.0,28.6,30.3,26.3,22.6,94,80,62,30.22,30.16,8,4,14,0.03
2013-3-8,40.4,31.9,27.2,34.2,27.4,23.0,94,84,66,30.38,30.18,10,4,19,0.31
2013-3-9,51.0,34.5,21.6,28.3,24.0,18.9,98,68,37,30.44,30.35,7,1,10,0.01
2013-3-10,52.2,38.2,20.0,33.1,26.1,17.5,92,65,40,30.42,30.25,9,3,18,0.01
2013-3-11,46.9,41.2,34.0,40.6,35.2,30.4,89,79,68,30.29,30.02,12,2,19,0.00
2013-3-12,50.9,44.9,35.7,48.9,42.1,32.3,94,90,80,30.03,29.74,10,5,23,0.62
2013-3-13,42.6,35.2,29.8,32.4,27.9,23.3,91,76,48,29.92,29.85,9,4,23,0.62
2013-3-14,29.7,28.6,27.0,27.4,20.1,15.9,92,70,61,29.91,29.89,11,7,20,0.00
2013-3-26,42.1,37.6,31.9,32.9,28.0,22.4,91,69,57,29.93,29.80,8,3,20,0.00
2013-3-27,46.9,37.8,26.0,31.8,27.6,21.6,88,67,49,30.03,29.90,12,6,22,0.00
2013-3-28,44.0,38.2,34.1,35.5,32.2,29.8,92,79,66,30.18,30.01,9,6,18,0.00
2013-3-29,45.9,39.7,32.7,33.7,31.0,27.4,83,71,59,30.20,30.13,10,5,21,0.00
2013-3-30,50.4,40.5,28.8,31.5,27.4,21.9,91,62,34,30.21,30.14,11,4,21,0.00
2013-3-31,54.5,40.1,24.7,37.9,28.8,21.4,92,67,38,30.19,29.76,10,3,21,0.15
2013-4-1,53.2,37.0,28.1,43.6,31.5,16.2,96,82,48,29.93,29.61,15,5,28,0.07
2013-4-2,33.1,28.2,23.7,24.0,19.2,14.9,89,69,52,30.09,29.91,15,8,29,0.07
2013-4-3,35.7,29.8,25.3,21.8,18.0,14.2,84,62,45,30.35,30.07,17,10,34,0.00
2013-4-4,55.4,39.5,27.0,25.0,21.1,18.4,76,51,25,30.41,30.02,8,4,32,0.00
2013-4-5,49.4,39.8,30.9,28.9,23.9,18.4,79,54,34,30.05,29.86,15,6,25,0.00
2013-4-6,44.3,33.1,25.3,27.2,15.1,9.7,84,50,26,30.36,30.05,11,5,21,0.00
2013-4-7,59.9,45.9,27.8,39.5,27.2,12.9,75,49,31,30.31,29.92,13,4,25,0.00
2013-4-8,62.6,49.4,40.8,39.3,36.5,34.1,81,62,41,30.18,29.96,11,4,16,0.00
2013-4-9,62.9,54.8,48.3,49.8,45.0,38.7,83,70,55,30.08,29.87,16,6,26,0.02
2013-4-10,54.4,48.7,44.9,50.3,46.4,42.4,95,92,81,30.04,29.88,8,1,14,0.28
2013-4-11,44.9,43.9,42.4,43.6,42.6,41.1,96,95,95,29.98,29.95,5,2,9,0.29
2013-4-16,62.4,58.7,49.4,56.1,53.0,45.1,91,81,71,30.19,30.05,16,7,22,0.21
2013-4-17,60.1,49.1,38.5,45.6,36.7,32.9,85,64,40,30.39,30.18,11,4,26,0.22
2013-4-18,63.5,49.6,32.4,51.2,38.3,30.0,92,68,42,30.38,30.01,13,5,26,0.00
2013-4-19,71.5,59.4,41.8,61.8,54.4,39.6,94,84,65,30.03,29.55,12,5,30,0.91
2013-4-20,48.8,41.8,32.6,39.6,32.7,22.5,94,72,44,30.39,29.77,15,6,26,1.05
2013-4-21,50.6,37.0,27.7,25.0,21.8,18.5,80,56,31,30.73,30.38,11,5,24,0.00
2013-4-22,56.2,41.9,26.3,30.6,25.3,21.3,89,57,27,30.76,30.55,10,4,23,0.00
2013-4-23,51.2,41.0,31.4,40.0,33.1,25.9,90,73,65,30.56,30.19,8,2,14,0.00
2013-4-24,71.9,53.3,30.2,52.7,41.9,28.6,95,69,44,30.20,29.76,13,3,28,0.00
2013-4-25,59.6,45.8,35.0,49.6,32.6,27.4,85,62,34,30.33,29.84,16,6,30,0.04
2013-4-26,53.7,43.0,31.2,37.6,31.4,28.1,89,66,43,30.52,30.32,12,3,21,0.00
2013-4-27,64.1,46.4,27.6,38.1,31.2,25.3,93,61,28,30.53,30.35,7,1,11,0.00
2013-4-28,73.3,55.2,33.8,42.2,36.8,31.3,92,56,29,30.37,30.16,8,2,12,0.00
2013-4-29,58.4,53.1,50.3,47.3,42.1,33.9,80,67,48,30.25,30.19,10,3,21,0.01
2013-4-30,71.6,58.3,47.6,48.7,44.2,34.6,85,62,38,30.33,30.24,7,2,16,0.03
2013-5-1,75.5,59.3,39.1,45.6,36.3,29.7,84,48,20,30.48,30.33,7,2,16,0.00
2013-5-2,80.8,62.5,39.0,45.6,40.4,36.1,91,50,23,30.50,30.32,8,2,18,0.00
2013-5-3,71.3,60.0,48.8,41.5,36.1,31.7,58,42,26,30.48,30.35,9,3,23,0.00
2013-5-4,74.8,59.9,39.9,45.8,41.7,35.6,90,55,31,30.39,30.22,7,2,23,0.00
2013-5-5,74.1,60.1,40.7,44.5,36.3,27.8,84,46,19,30.31,30.18,8,2,21,0.00
2013-5-6,76.1,58.4,35.9,47.1,38.9,25.3,94,55,18,30.27,30.12,8,2,20,0.00
2013-5-7,80.3,63.9,43.7,54.5,47.8,36.8,94,61,22,30.20,30.08,7,2,12,0.00
2013-5-8,68.8,62.1,56.7,60.1,56.9,53.1,93,83,70,30.16,30.01,7,2,16,0.12
2013-5-9,70.4,60.0,51.1,56.3,52.7,45.8,92,78,43,30.03,29.92,8,2,16,0.12
2013-5-10,79.4,62.1,44.5,58.4,51.9,43.2,97,73,38,30.03,29.86,5,1,14,0.00
2013-5-11,67.2,61.2,52.8,62.1,56.2,48.7,94,84,69,29.89,29.69,13,3,25,0.05
2013-5-12,57.7,50.2,39.0,48.8,39.5,26.2,92,70,33,29.91,29.72,13,5,25,0.05
2013-5-13,47.9,42.0,34.5,33.1,29.3,25.3,84,61,47,30.16,29.90,11,6,21,0.00
2013-5-14,55.9,44.3,33.5,32.1,30.0,26.9,84,60,35,30.19,30.08,9,4,15,0.00
2013-5-15,34.3,31.9,30.3,30.0,28.9,28.0,92,89,84,30.11,30.09,0,0,5,0.00
2013-5-17,69.3,61.0,45.6,44.6,41.6,39.6,81,50,36,30.28,30.13,8,4,16,0.00
2013-5-18,72.2,56.1,37.0,49.0,43.2,35.0,94,66,36,30.35,30.25,10,2,13,0.00
2013-5-19,58.2,53.2,43.3,54.8,50.3,41.1,95,90,83,30.33,30.19,8,2,14,0.01
2013-5-20,82.8,66.6,52.1,65.8,59.5,50.4,97,80,53,30.20,29.98,8,2,12,0.01
2013-5-21,88.5,72.1,56.7,70.8,63.8,55.3,98,77,48,30.00,29.81,10,2,19,0.00
2013-5-22,80.6,70.4,63.2,71.5,66.3,61.1,96,87,72,29.92,29.80,13,4,23,0.13
2013-5-23,77.0,68.8,61.4,68.3,61.8,58.2,95,79,61,29.85,29.75,15,3,27,0.18
2013-5-24,61.6,48.4,40.9,60.2,46.5,39.2,97,93,87,30.08,29.69,10,5,27,0.51
2013-5-25,43.4,42.3,41.3,41.4,40.3,38.8,95,92,89,30.08,29.99,15,8,27,0.60
2013-5-26,56.9,48.1,42.0,44.2,39.8,36.9,89,74,50,30.20,29.97,15,8,36,0.01
2013-5-27,68.2,54.5,37.8,41.5,38.2,34.8,91,58,32,30.28,30.18,11,4,26,0.01
2013-5-28,69.0,54.1,35.9,54.2,44.1,34.2,95,73,36,30.28,30.16,7,2,14,0.02
2013-5-29,80.8,64.9,55.6,70.2,60.8,54.0,97,88,62,30.16,29.97,15,2,38,0.61
2013-5-30,86.0,71.9,57.3,69.7,64.5,56.5,98,80,55,30.16,30.07,8,2,14,0.61
2013-5-31,93.1,76.2,59.5,70.5,64.0,58.1,97,71,37,30.15,29.96,9,2,20,0.00
2013-6-1,90.1,77.7,65.3,67.4,64.5,60.6,88,66,43,30.00,29.85,9,3,16,0.00
2013-6-2,85.8,75.1,65.5,69.4,66.5,63.4,94,76,54,29.86,29.71,11,3,18,0.30
2013-6-3,67.3,60.6,50.8,63.8,53.4,42.1,96,78,57,29.99,29.83,10,4,20,0.30
2013-6-4,67.7,57.2,47.9,46.0,42.9,40.5,77,60,42,30.20,29.98,13,6,23,0.00
2013-6-5,74.3,59.4,43.0,51.2,46.1,40.3,93,64,39,30.26,30.13,5,1,11,0.00
2013-6-6,69.1,59.0,51.6,55.0,51.2,48.0,93,77,50,30.18,30.05,8,2,19,0.49
2013-6-7,57.3,55.7,53.9,55.3,53.9,52.3,96,93,90,30.05,29.81,6,2,15,0.60
2013-6-8,66.7,58.7,52.6,59.5,55.6,51.6,97,90,77,30.11,29.78,9,3,18,0.72
2013-6-9,75.3,62.4,49.4,58.0,53.8,48.0,97,76,48,30.25,30.11,10,3,19,0.01
2013-6-10,62.3,57.5,48.8,60.1,55.7,47.4,97,94,89,30.24,29.91,7,1,13,0.60
2013-6-11,72.5,62.5,57.9,66.2,59.7,54.3,96,91,79,29.92,29.62,11,4,18,0.40
2013-6-12,71.1,61.8,53.1,55.3,53.3,50.7,93,75,52,29.91,29.72,12,6,26,0.40
2013-6-13,53.0,50.9,49.4,51.2,49.4,47.9,96,95,93,29.89,29.84,1,0,26,0.00
2013-6-20,80.3,70.9,56.2,59.6,53.9,45.8,92,57,37,30.31,30.24,6,2,9,0.00
2013-6-21,83.2,67.3,50.2,65.1,57.4,48.8,96,74,46,30.32,30.24,6,1,11,0.00
2013-6-22,85.5,72.2,57.0,66.6,61.7,55.6,97,73,43,30.26,30.10,9,3,13,0.00
2013-6-23,91.5,78.9,67.8,71.0,66.6,61.8,92,68,39,30.15,30.01,10,3,24,0.00
2013-6-24,90.0,76.8,66.1,73.7,68.0,62.6,94,76,52,30.06,29.94,13,3,23,0.93
2013-8-15,71.0,64.4,52.0,55.6,52.2,50.0,94,67,50,30.17,30.08,11,4,15,0.00
2013-8-16,76.1,59.2,46.5,57.3,51.3,45.3,97,78,46,30.23,30.16,7,1,12,0.00
2013-8-17,80.2,63.2,48.8,60.7,54.7,47.7,97,77,45,30.36,30.29,5,1,8,0.01
2013-8-18,75.8,63.0,52.6,64.5,58.0,51.2,97,85,58,30.33,30.16,4,0,6,0.00
2013-8-19,79.0,65.5,56.3,63.5,59.0,55.2,97,82,51,30.17,30.06,7,1,13,0.00
2013-8-20,81.5,66.1,51.4,65.5,58.9,50.3,98,80,51,30.20,30.10,8,2,16,0.00
2013-8-21,84.9,68.9,53.9,66.3,60.3,52.8,97,77,48,30.23,30.08,7,1,12,0.00
2013-8-22,86.5,72.2,58.7,68.3,62.9,57.4,98,76,43,30.10,29.88,11,2,19,0.02
2013-8-23,68.5,65.2,61.4,66.1,63.2,60.0,95,93,92,30.02,29.95,6,3,11,0.01
2013-8-27,81.8,73.2,63.8,70.0,66.9,62.3,96,82,64,29.98,29.92,6,1,12,0.11
2013-8-28,86.5,70.9,59.1,71.6,65.5,58.2,98,85,57,29.97,29.88,6,0,11,0.01
2013-8-29,81.0,69.2,62.8,68.0,64.9,61.9,98,87,63,30.08,29.97,6,1,13,0.01
2013-8-30,85.9,72.0,61.7,69.6,65.4,60.6,98,82,52,30.04,29.85,8,1,13,0.00
2013-8-31,84.1,72.8,66.9,73.9,68.6,64.5,97,87,68,29.85,29.78,8,1,13,0.43
2013-9-3,72.3,66.6,62.1,59.2,56.9,54.9,82,72,56,29.91,29.82,9,5,21,0.00
2013-9-4,77.3,66.0,57.0,58.2,56.0,52.0,95,72,43,30.01,29.91,10,4,20,0.00
2013-9-5,66.8,61.3,47.9,59.6,50.0,41.1,94,69,40,30.25,29.94,11,4,21,0.01
2013-9-6,67.3,52.0,37.8,48.8,42.0,36.4,96,73,37,30.34,30.18,6,1,11,0.00
2013-9-7,76.6,58.5,44.6,56.0,49.7,43.0,96,77,38,30.19,29.93,7,1,12,0.00
2013-9-8,66.7,60.9,44.7,60.1,52.1,41.5,95,74,49,30.18,29.85,12,4,20,0.00
2013-9-9,74.0,55.5,37.3,54.7,46.1,36.0,96,74,40,30.29,30.13,6,1,10,0.00
2013-9-10,85.9,69.9,58.1,75.6,65.2,54.0,96,86,67,30.14,30.02,9,1,12,0.15
2013-9-11,94.6,82.9,74.3,76.2,72.6,68.9,90,73,46,30.10,29.96,17,3,37,0.00
2013-9-12,86.3,72.5,64.5,74.7,67.5,63.3,96,85,62,29.84,29.71,13,2,24,0.24
2013-9-13,65.1,60.1,50.2,63.3,56.2,45.9,96,87,74,29.93,29.68,11,5,24,0.01
2013-9-14,59.9,51.9,44.1,49.0,45.8,41.9,92,80,61,30.18,29.93,10,5,21,0.00
2013-9-15,68.5,52.8,36.2,53.9,46.1,34.9,97,80,48,30.26,30.12,7,1,20,0.00
2013-9-16,62.4,54.4,44.7,53.4,49.8,40.8,93,85,70,30.37,30.10,9,3,14,0.03
2013-9-17,62.9,47.5,34.8,44.5,39.4,33.2,96,77,45,30.54,30.37,5,1,12,0.00
2013-9-18,73.4,52.9,34.8,54.6,43.9,33.5,100,75,42,30.42,30.21,8,1,11,0.00
2013-9-19,78.8,57.4,39.5,60.0,48.6,38.1,97,76,40,30.24,30.10,5,0,9,0.00
2013-9-20,78.7,61.1,42.0,61.8,51.7,40.7,97,75,38,30.14,29.99,8,2,13,0.00
2013-9-21,74.6,64.4,55.1,62.3,56.7,47.2,94,78,39,30.01,29.66,9,3,21,0.16
2013-9-22,59.7,55.2,49.1,56.7,48.3,42.0,94,78,56,29.97,29.66,13,6,21,0.06
2013-9-23,54.0,48.6,44.2,43.3,41.0,38.7,81,75,66,30.16,30.08,9,5,16,0.00
2013-9-24,63.8,51.4,41.8,45.3,41.4,37.8,87,71,45,30.15,29.96,11,4,20,0.00
2013-9-25,71.1,53.7,37.8,53.0,45.8,36.1,100,77,48,30.05,29.95,6,1,18,0.00
2013-9-26,65.7,53.1,43.3,50.9,47.1,41.8,97,82,57,30.22,30.05,5,1,11,0.00
2013-9-27,58.7,49.3,38.7,50.9,45.7,37.4,97,88,73,30.36,30.21,4,0,8,0.01
2013-9-28,72.2,53.6,40.4,54.9,46.8,39.4,97,81,41,30.44,30.31,6,1,10,0.01
2013-9-29,74.2,55.1,38.6,55.7,47.7,37.3,97,79,46,30.32,30.12,4,1,11,0.00
2013-9-30,73.3,55.9,42.1,54.5,48.4,40.8,97,79,47,30.15,30.02,5,0,10,0.00
2013-10-1,73.7,57.1,41.1,60.5,51.1,39.8,97,82,61,30.09,29.97,9,2,18,0.01
2013-10-2,76.3,62.7,49.3,62.4,55.3,47.8,97,78,53,30.08,29.96,10,4,19,0.00
2013-10-3,75.2,59.2,43.2,52.2,48.1,41.3,95,70,33,30.19,30.07,7,2,13,0.00
2013-10-4,63.0,57.3,52.8,59.4,55.1,50.0,96,92,86,30.13,30.07,5,0,10,0.28
2013-10-5,66.8,57.9,54.9,60.9,55.2,50.9,99,91,77,30.17,30.10,5,0,8,0.01
2013-10-6,62.5,56.8,51.2,60.8,54.9,49.3,98,93,88,30.16,30.04,9,3,21,0.02
2013-10-7,71.8,62.3,54.3,66.5,58.6,44.8,96,88,70,30.04,29.67,18,6,34,0.66
2013-10-8,61.1,52.4,39.8,46.6,42.9,37.9,94,71,50,30.44,29.99,11,4,23,0.00
2013-10-9,63.3,46.2,33.4,46.3,38.2,32.1,97,78,40,30.54,30.42,6,1,16,0.00
2013-10-10,60.0,47.9,35.7,47.4,40.8,34.4,97,78,43,30.42,30.25,3,0,7,0.00
2013-10-11,70.8,54.7,44.5,48.6,42.6,30.5,92,68,24,30.25,30.16,4,1,8,0.00
2013-10-12,70.8,53.1,36.0,55.0,46.4,34.6,97,80,54,30.40,30.21,9,2,18,0.00
2013-10-13,67.5,57.3,51.2,51.9,49.5,47.3,88,76,53,30.46,30.35,8,3,16,0.00
2013-10-14,70.1,56.9,47.2,55.3,50.8,45.1,94,81,57,30.39,30.28,5,2,12,0.00
2013-10-15,70.3,59.9,54.0,58.0,54.0,49.9,92,81,64,30.32,30.14,5,1,12,0.00
2013-10-16,63.0,57.3,51.8,54.3,49.4,38.5,88,75,54,30.14,29.90,9,3,14,0.00
2013-10-17,70.8,60.0,54.8,57.8,51.4,45.5,94,75,42,29.93,29.63,7,2,14,0.04
2013-10-18,61.9,54.9,41.9,58.9,45.5,38.1,93,72,44,29.99,29.61,12,4,21,0.05
2013-10-19,64.8,50.7,37.8,46.8,41.6,35.6,95,73,44,30.00,29.75,8,2,14,0.01
2013-10-20,57.3,49.6,43.4,46.7,37.5,33.3,81,64,43,30.09,29.74,12,6,25,0.00
2013-10-21,66.3,53.4,39.0,43.1,39.2,35.8,90,61,39,30.15,29.94,9,2,16,0.00
2013-10-22,55.5,48.1,33.9,47.8,40.0,31.1,90,74,61,29.94,29.80,11,3,20,0.00
2013-10-23,50.9,40.4,31.5,37.7,33.5,29.4,94,78,52,29.88,29.69,10,2,15,0.03
2013-10-24,48.8,40.9,33.9,35.7,31.7,27.6,89,71,46,30.00,29.80,13,5,24,0.01
2013-10-25,46.6,34.2,35.4,35.9,13.8,-99.9,93,67,58,30.23,30.00,14,-146,23,0.01
2013-10-26,50.4,43.9,33.9,34.5,29.2,25.6,88,58,39,30.23,29.89,17,5,26,0.00
2013-10-27,48.4,42.3,29.5,35.6,33.1,26.6,92,70,49,30.16,29.85,11,4,23,0.00
2013-10-28,52.3,41.2,27.9,37.5,31.4,24.3,94,69,48,30.44,30.14,11,3,20,0.00
2013-10-29,45.4,33.0,23.0,28.8,24.4,20.6,93,73,46,30.53,30.41,6,1,11,0.00
2013-10-30,55.1,40.6,31.3,43.1,34.1,24.4,93,78,54,30.41,30.26,8,1,12,0.03
2013-10-31,58.7,45.7,30.5,56.1,44.0,29.0,97,94,91,30.30,29.70,11,1,15,0.18
2013-11-1,67.9,61.5,49.7,61.1,52.0,41.0,91,72,47,29.74,29.39,20,8,39,0.20
2013-11-2,58.9,45.8,35.7,48.2,40.8,33.8,100,84,58,29.89,29.68,11,2,19,0.02
2013-11-3,39.4,34.3,27.0,37.2,28.5,19.3,94,80,58,30.56,29.89,8,3,15,0.03
2013-11-4,41.2,28.6,18.4,23.0,18.8,15.4,92,69,38,30.76,30.56,8,1,15,0.00
2013-11-5,53.7,39.9,26.1,36.8,29.7,20.0,83,67,50,30.74,30.50,7,2,13,0.00
2013-11-6,61.6,50.9,38.7,47.9,42.0,35.4,91,73,52,30.52,29.97,11,3,18,0.00
2013-11-7,61.4,48.4,37.5,52.3,42.6,32.8,92,81,66,29.97,29.81,16,7,28,0.29
2013-11-8,41.2,36.1,33.2,34.0,31.2,26.0,92,83,58,30.23,29.93,17,5,26,0.03
2013-11-9,44.2,36.4,30.3,31.9,28.7,24.3,84,74,55,30.30,29.97,5,2,19,0.00
2013-11-10,47.4,42.7,35.9,38.6,34.1,29.7,89,72,58,30.07,29.83,16,7,29,0.02
2013-11-11,46.2,41.6,36.1,35.5,30.4,27.3,83,65,48,30.21,29.97,16,7,34,0.00
2013-11-12,40.2,27.8,24.3,35.8,21.5,15.6,90,77,69,30.35,30.00,15,8,34,0.02
2013-11-13,32.6,26.4,22.3,20.3,17.6,14.9,79,69,56,30.44,30.22,12,5,21,0.00
2013-11-14,50.5,40.5,32.2,25.4,18.5,14.2,60,41,30,30.22,30.13,13,5,30,0.00
2013-11-15,60.8,44.7,33.2,26.8,20.2,14.3,71,40,19,30.24,30.14,9,2,15,0.00
2013-11-16,61.0,49.3,37.2,38.4,32.2,22.5,86,54,28,30.35,30.23,9,2,13,0.00
2013-11-17,58.8,50.9,36.8,54.9,47.8,31.2,94,89,78,30.29,29.71,10,4,23,0.00
2013-11-18,59.2,53.1,40.0,55.9,40.8,28.8,93,64,39,29.80,29.51,19,8,32,0.16
2013-11-19,40.0,33.3,26.9,29.6,24.1,18.7,85,69,56,30.46,29.80,17,10,32,0.00
2013-11-20,37.9,26.7,18.2,19.9,16.2,13.7,85,66,38,30.71,30.45,5,1,24,0.00
2013-11-21,46.6,30.6,13.7,31.4,21.5,11.1,91,71,39,30.71,30.43,10,2,16,0.00
2013-11-22,48.3,41.8,37.0,45.3,39.2,31.0,95,90,78,30.43,29.94,15,1,24,0.06
2013-11-23,40.7,31.6,20.6,35.9,24.2,11.3,91,74,54,30.09,29.91,17,10,35,0.00
2013-11-24,22.4,17.2,12.0,14.9,8.4,3.5,88,69,47,30.41,29.99,18,10,35,0.00
2013-11-25,34.6,23.7,13.4,19.1,12.7,5.7,79,64,41,30.50,30.27,10,3,26,0.00
2013-11-26,37.2,32.0,27.7,35.4,27.1,11.5,94,83,40,30.34,29.97,9,2,19,0.23
2013-11-27,42.9,34.7,28.7,42.0,32.7,24.5,100,92,84,29.97,29.48,11,5,24,0.67
2013-11-28,28.7,21.1,11.4,24.1,15.0,8.7,99,77,66,30.52,29.72,14,6,28,0.00
2013-11-29,29.7,20.8,13.8,20.8,15.1,11.2,91,79,60,30.84,30.52,9,2,27,0.00
2013-11-30,28.9,19.9,5.8,21.7,12.1,2.8,89,73,53,30.85,30.42,7,2,13,0.00
2013-12-1,39.9,30.5,21.7,31.4,26.0,18.4,92,84,70,30.42,30.09,3,0,8,0.01
2013-12-2,40.9,34.3,29.0,35.2,31.1,27.1,94,88,77,30.10,29.94,7,0,11,0.00
2013-12-3,40.1,33.8,27.6,35.9,30.7,25.2,95,89,80,30.08,29.97,7,1,14,0.00
2013-12-4,44.4,30.7,21.6,34.5,27.0,19.8,95,86,66,30.22,30.07,4,0,6,0.01
2013-12-5,54.4,47.3,31.2,51.1,44.6,28.2,96,90,79,30.20,29.93,9,3,18,0.01
2013-12-6,48.4,36.9,30.1,46.8,33.9,28.3,94,89,81,30.24,29.96,10,5,19,0.18
2013-12-7,32.0,29.1,25.5,28.8,23.6,17.0,94,80,63,30.57,30.21,11,4,24,0.00
2013-12-8,28.9,25.8,23.5,21.2,19.5,18.0,85,77,69,30.67,30.49,4,1,13,0.00
2013-12-9,41.1,31.7,24.1,35.6,28.3,21.1,92,87,77,30.49,29.97,10,4,21,0.12
2013-12-10,34.6,27.7,13.8,29.7,22.1,10.5,91,80,68,30.08,29.90,7,3,18,0.00
2013-12-11,29.4,24.1,20.4,20.5,15.9,10.5,90,71,58,30.27,30.07,12,6,23,0.00
2013-12-12,20.7,17.0,12.0,13.7,7.2,0.5,83,65,49,30.40,30.09,11,4,19,0.00
2013-12-13,26.1,20.3,13.5,19.8,12.3,7.6,88,71,63,30.46,30.04,15,7,27,0.00
2013-12-14,16.9,9.9,5.4,14.4,5.4,0.0,90,82,68,30.65,30.10,6,3,22,0.00
2013-12-15,28.5,23.0,15.3,24.4,19.3,12.9,93,86,72,30.10,29.67,11,3,18,0.00
2013-12-16,24.0,15.9,-4.4,21.6,10.7,-8.3,91,80,63,30.30,29.82,13,2,25,0.00
2013-12-17,20.1,6.1,-10.7,16.9,2.7,-14.8,90,86,80,30.32,30.10,5,1,11,0.00
2013-12-18,31.2,21.3,9.6,23.5,16.0,6.7,90,80,68,30.15,30.06,10,2,16,0.03
2013-12-19,42.7,32.9,27.9,28.8,24.1,18.4,88,71,54,30.17,30.02,10,3,20,0.27
2013-12-20,49.8,40.8,29.0,42.3,35.1,25.6,94,80,69,30.15,29.94,10,1,21,0.08
2013-12-21,60.2,50.0,41.1,52.8,46.7,39.2,97,89,74,29.95,29.86,13,3,24,0.21
2013-12-22,70.0,57.8,39.3,58.8,50.2,37.7,98,78,53,29.99,29.66,19,6,41,0.01
2013-12-23,45.0,39.3,30.2,42.4,36.9,25.1,95,91,81,30.24,29.98,11,3,24,0.26
2013-12-24,30.1,24.1,14.5,25.3,18.1,8.9,86,78,69,30.41,30.18,13,6,24,0.00
2013-12-25,20.5,14.7,8.0,9.8,6.4,2.8,80,69,55,30.61,30.41,12,4,27,0.00
2013-12-26,32.1,26.2,20.0,25.8,18.4,9.7,81,72,63,30.45,30.17,9,3,21,0.00
2013-12-27,33.7,29.3,23.3,24.7,21.4,17.3,84,72,62,30.34,30.27,9,4,18,0.00
2013-12-28,45.0,33.7,23.4,31.4,26.4,19.8,92,75,54,30.27,30.09,13,3,25,0.00
2013-12-29,47.2,34.7,26.1,37.4,30.9,23.6,95,87,51,30.09,29.66,5,0,11,0.45
2013-12-30,36.9,23.1,9.7,34.6,18.0,5.5,96,81,66,30.26,29.71,13,6,29,0.07
2013-12-31,24.7,15.7,7.4,19.5,10.4,4.5,90,80,61,30.29,30.08,14,4,35,0.00
2014-1-1,22.6,17.8,13.5,13.3,10.2,6.5,87,72,58,30.45,30.27,14,3,42,0.00
2014-1-2,15.2,4.6,0.1,12.0,1.1,-3.6,87,85,83,30.40,29.98,8,4,15,0.00